Wednesday, November 22, 2017, 11:32 AM EST
Back to Local

KOXB, Ocean City Municipal Airport

Location: Berlin, MD, United States Lat: 38.317
Local Time: 11:32 AM EST (16:32 GMT) Lon: -75.117
Time Zone: US/Eastern Elev: 13 ft

Show me the last for .
Show Decoded

2017-11-22 10:53 METAR KOXB 221553Z AUTO 34007KT 10SM OVC065 14/10 A2991 RMK AO2 SLP129 T01390100
                 =
2017-11-22 09:53 METAR KOXB 221453Z AUTO 34010KT 10SM OVC070 13/12 A2990 RMK AO2 RAE30 SLP126
                 P0001 60011 T01330122 51002 =
2017-11-22 09:35 METAR KOXB 221435Z AUTO 31006KT 10SM FEW009 OVC065 13/13 A2991 RMK AO2 RAE30
                 P0001 T01330133 =
2017-11-22 08:53 METAR KOXB 221353Z AUTO 28008KT 10SM -RA SCT040 OVC049 13/13 A2990 RMK AO2
                 SLP125 P0006 T01330128 =
2017-11-22 08:32 METAR KOXB 221332Z AUTO 29009KT 7SM -RA FEW029 OVC038 13/13 A2991 RMK AO2 P0006
                 T01330128 =
2017-11-22 08:15 METAR KOXB 221315Z AUTO 30006KT 2 1/2SM -RA BR SCT021 SCT027 OVC032 13/13 A2992
                 RMK AO2 VIS 3/4V5 P0004 T01330133 =
2017-11-22 07:53 METAR KOXB 221253Z AUTO 31005KT 8SM -RA BKN022 OVC029 13/13 A2992 RMK AO2 RAB19
                 SLP130 P0004 T01330133 =
2017-11-22 07:28 METAR KOXB 221228Z AUTO 32008G18KT 4SM +RA BR SCT009 BKN016 OVC032 14/13 A2991
                 RMK AO2 RAB19 P0003 T01390133 =
2017-11-22 07:10 METAR KOXB 221210Z AUTO 31008KT 10SM BKN009 OVC022 15/14 A2991 RMK AO2 T01500144
                 =
2017-11-22 06:53 METAR KOXB 221153Z AUTO 23005KT 10SM FEW011 OVC023 16/14 A2990 RMK AO2 RAE1054
                 SLP123 P0000 60000 T01560144 10161 20139 58014 =
2017-11-22 06:13 METAR KOXB 221113Z AUTO 00000KT 10SM OVC027 14/14 A2991 RMK AO2 RAE1054 P0000
                 T01440139 =
2017-11-22 05:53 METAR KOXB 221053Z AUTO 28003KT 10SM -RA FEW018 BKN030 OVC035 15/14 A2992 RMK
                 AO2 RAB32 SLP130 P0000 T01500144 =
2017-11-22 04:53 METAR KOXB 220953Z AUTO 22006KT 10SM SCT013 OVC046 16/15 A2994 RMK AO2 SLP137
                 T01610150 =
2017-11-22 04:20 METAR KOXB 220920Z AUTO VRB06KT 10SM FEW009 OVC044 15/14 A2993 RMK AO2 T01500144
                 =
2017-11-22 03:53 METAR KOXB 220853Z AUTO 24005KT 10SM BKN044 BKN060 OVC075 14/14 A2994 RMK AO2
                 SLP137 60000 T01440139 58028 =
2017-11-22 02:53 METAR KOXB 220753Z AUTO 24005KT 10SM BKN038 OVC047 14/13 A2997 RMK AO2 SLP146
                 T01390133 =
2017-11-22 01:53 METAR KOXB 220653Z AUTO 22005KT 10SM FEW070 OVC090 14/13 A3000 RMK AO2 RAB19E38
                 SLP157 P0000 T01390128 =
2017-11-22 00:53 METAR KOXB 220553Z AUTO 21004KT 10SM FEW080 OVC100 14/12 A3002 RMK AO2 SLP165
                 T01390122 10139 20128 58025 =
2017-11-21 23:53 METAR KOXB 220453Z AUTO 21004KT 10SM BKN110 14/12 A3006 RMK AO2 SLP177 T01390122
                 401390050 =
2017-11-21 22:53 METAR KOXB 220353Z AUTO 21004KT 10SM BKN100 13/12 A3007 RMK AO2 SLP182 T01330122
                 =
2017-11-21 21:53 METAR KOXB 220253Z AUTO VRB05KT 10SM SCT085 13/12 A3009 RMK AO2 SLP190 T01330122
                 58005 =
2017-11-21 20:53 METAR KOXB 220153Z AUTO 21006KT 10SM CLR 13/11 A3011 RMK AO2 SLP195 T01330111 =
2017-11-21 19:53 METAR KOXB 220053Z AUTO 22008KT 10SM CLR 14/11 A3011 RMK AO2 SLP194 T01390106 =
2017-11-21 18:53 METAR KOXB 212353Z AUTO 21007KT 10SM CLR 13/11 A3011 RMK AO2 SLP194 T01330111
                 10139 20122 58004 =
2017-11-21 17:53 METAR KOXB 212253Z AUTO 22012KT 10SM CLR 13/10 A3012 RMK AO2 SLP199 T01330100 =
2017-11-21 16:53 METAR KOXB 212153Z AUTO 22008KT 10SM CLR 13/08 A3011 RMK AO2 SLP197 T01280078 =
2017-11-21 15:53 METAR KOXB 212053Z AUTO 22010KT 10SM CLR 13/06 A3012 RMK AO2 SLP198 T01280056
                 56014 =
2017-11-21 14:53 METAR KOXB 211953Z AUTO 21010G17KT 10SM CLR 13/05 A3012 RMK AO2 SLP200 T01330050
                 =
2017-11-21 13:53 METAR KOXB 211853Z AUTO 21011KT 10SM CLR 13/06 A3013 RMK AO2 SLP203 T01280061 =
2017-11-21 12:53 METAR KOXB 211753Z AUTO 21008G17KT 10SM CLR 13/04 A3016 RMK AO2 SLP212 T01280039
                 10139 20078 58024 =
2017-11-21 11:53 METAR KOXB 211653Z AUTO 22010G19KT 10SM CLR 14/02 A3020 RMK AO2 SLP226 T01390017
                 =

Support USWX by starting your Amazon purchase here.